createdAt,value
2019-06-26T00:02:00.384Z,99.90
2019-06-26T00:05:08.470Z,99.90
2019-06-26T00:08:16.458Z,99.90
2019-06-26T00:11:24.468Z,99.90
2019-06-26T00:14:32.489Z,99.90
2019-06-26T00:17:41.277Z,99.90
2019-06-26T00:20:49.181Z,99.90
2019-06-26T00:23:57.084Z,99.90
2019-06-26T00:27:05.010Z,99.90
2019-06-26T00:30:13.372Z,99.90
2019-06-26T00:33:21.352Z,99.90
2019-06-26T00:36:38.675Z,99.90
2019-06-26T00:39:46.588Z,99.90
2019-06-26T00:42:54.616Z,99.90
2019-06-26T00:46:02.681Z,99.90
2019-06-26T00:49:10.707Z,99.90
2019-06-26T00:52:18.737Z,99.90
2019-06-26T00:55:26.745Z,99.90
2019-06-26T00:58:34.753Z,99.90
2019-06-26T01:01:43.325Z,99.90
2019-06-26T01:04:52.885Z,99.90
2019-06-26T01:08:00.835Z,99.90
2019-06-26T01:11:08.805Z,99.90
2019-06-26T01:14:25.730Z,99.90
2019-06-26T01:17:33.667Z,99.90
2019-06-26T01:20:41.947Z,99.90
2019-06-26T01:23:49.930Z,99.90
2019-06-26T01:27:07.346Z,99.90
2019-06-26T01:30:16.749Z,99.90
2019-06-26T01:33:24.643Z,99.90
2019-06-26T01:36:35.424Z,99.90
2019-06-26T01:39:43.493Z,99.90
2019-06-26T01:43:00.763Z,99.90
2019-06-26T01:46:08.776Z,99.90
2019-06-26T01:49:16.739Z,99.90
2019-06-26T01:52:24.736Z,99.90
2019-06-26T01:55:32.731Z,99.90
2019-06-26T01:58:40.731Z,99.90
2019-06-26T02:01:48.802Z,99.90
2019-06-26T02:04:56.801Z,99.90
2019-06-26T02:08:04.514Z,99.90
2019-06-26T02:11:12.659Z,99.90
2019-06-26T02:14:30.409Z,99.90
2019-06-26T02:17:30.445Z,99.90
2019-06-26T02:20:47.841Z,99.90
2019-06-26T02:23:55.838Z,99.90
2019-06-26T02:27:03.754Z,99.90
2019-06-26T02:30:11.994Z,99.90
2019-06-26T02:33:19.888Z,99.90
2019-06-26T02:36:27.894Z,99.90
2019-06-26T02:39:35.886Z,99.90
2019-06-26T02:42:43.780Z,99.90
2019-06-26T02:45:51.669Z,99.90
2019-06-26T02:48:59.580Z,99.90
2019-06-26T02:52:07.567Z,99.90
2019-06-26T02:55:15.757Z,99.90
2019-06-26T02:58:23.947Z,99.90
2019-06-26T03:01:31.857Z,99.90
2019-06-26T03:04:39.745Z,99.90
2019-06-26T03:07:47.649Z,99.90
2019-06-26T03:10:55.527Z,99.90
2019-06-26T03:14:03.747Z,99.90
2019-06-26T03:17:11.785Z,99.90
2019-06-26T03:20:24.943Z,99.90
2019-06-26T03:23:42.128Z,99.90
2019-06-26T03:26:50.017Z,99.90
2019-06-26T03:29:58.018Z,99.90
2019-06-26T03:33:06.120Z,99.90
2019-06-26T03:36:14.114Z,99.90
2019-06-26T03:39:22.194Z,99.90
2019-06-26T03:42:39.599Z,99.90
2019-06-26T03:45:47.786Z,99.90
2019-06-26T03:49:05.166Z,99.90
2019-06-26T03:52:13.139Z,99.90
2019-06-26T03:55:21.263Z,99.90
2019-06-26T03:58:29.173Z,99.90
2019-06-26T04:01:37.070Z,99.90
2019-06-26T04:04:45.057Z,99.90
2019-06-26T04:07:53.059Z,99.90
2019-06-26T04:11:01.056Z,99.90
2019-06-26T04:14:09.125Z,99.90
2019-06-26T04:17:17.038Z,99.90
2019-06-26T04:20:24.928Z,99.90
2019-06-26T04:23:32.925Z,99.90
2019-06-26T04:26:40.924Z,99.90
2019-06-26T04:29:48.939Z,99.90
2019-06-26T04:32:56.962Z,99.90
2019-06-26T04:36:05.174Z,99.90
2019-06-26T04:39:13.178Z,99.90
2019-06-26T04:42:21.185Z,99.90
2019-06-26T04:45:29.175Z,99.90
2019-06-26T04:48:37.251Z,99.90
2019-06-26T04:51:45.262Z,99.90
2019-06-26T04:54:53.205Z,99.90
2019-06-26T04:58:01.146Z,99.90
2019-06-26T05:01:09.133Z,99.90
2019-06-26T05:04:17.140Z,99.90
2019-06-26T05:07:25.234Z,99.90
2019-06-26T05:10:33.427Z,99.90
2019-06-26T05:13:41.482Z,99.90
2019-06-26T05:16:49.569Z,99.90
2019-06-26T05:19:57.571Z,99.90
2019-06-26T05:23:14.621Z,99.90
2019-06-26T05:26:23.037Z,99.90
2019-06-26T05:29:40.179Z,99.90
2019-06-26T05:32:48.215Z,99.90
2019-06-26T05:35:56.194Z,99.90
2019-06-26T05:39:05.728Z,99.90
2019-06-26T05:42:13.608Z,99.90
2019-06-26T05:45:21.931Z,99.90
2019-06-26T05:48:39.174Z,99.50
2019-06-26T05:51:47.170Z,98.40
2019-06-26T05:54:55.198Z,98.20
2019-06-26T05:58:05.849Z,97.60
2019-06-26T06:01:13.865Z,97.30
2019-06-26T06:04:31.142Z,96.70
2019-06-26T06:07:39.182Z,95.90
2019-06-26T06:10:47.428Z,95.80
2019-06-26T06:13:55.523Z,95.30
2019-06-26T06:17:03.626Z,95.30
2019-06-26T06:20:12.029Z,94.80
2019-06-26T06:23:19.918Z,95.00
2019-06-26T06:26:27.827Z,95.20
2019-06-26T06:29:35.712Z,94.40
2019-06-26T06:32:43.777Z,94.20
2019-06-26T06:35:51.920Z,93.90
2019-06-26T06:38:59.920Z,93.80
2019-06-26T06:42:07.973Z,93.80
2019-06-26T06:45:16.222Z,93.50
2019-06-26T06:48:24.099Z,93.30
2019-06-26T06:51:31.993Z,93.20
2019-06-26T06:54:40.060Z,93.40
2019-06-26T06:57:57.357Z,93.50
2019-06-26T07:01:05.467Z,93.90
2019-06-26T07:04:13.412Z,93.60
2019-06-26T07:07:21.408Z,93.80
2019-06-26T07:10:29.416Z,93.40
2019-06-26T07:13:37.408Z,93.60
2019-06-26T07:16:45.345Z,93.70
2019-06-26T07:19:53.438Z,93.70
2019-06-26T07:23:01.434Z,93.70
2019-06-26T07:26:13.090Z,93.40
2019-06-26T07:29:19.009Z,93.50
2019-06-26T07:32:26.930Z,93.20
2019-06-26T07:35:35.326Z,92.90
2019-06-26T07:38:43.289Z,92.90
2019-06-26T07:42:00.488Z,92.90
2019-06-26T07:45:09.300Z,93.00
2019-06-26T07:48:17.216Z,92.90
2019-06-26T07:51:25.301Z,92.80
2019-06-26T07:57:47.197Z,92.20
2019-06-26T08:01:04.413Z,92.20
2019-06-26T08:04:12.278Z,92.50
2019-06-26T08:07:20.317Z,91.80
2019-06-26T08:10:27.973Z,91.60
2019-06-26T08:13:35.973Z,91.90
2019-06-26T08:16:53.079Z,91.90
2019-06-26T08:20:01.098Z,92.00
2019-06-26T08:23:09.164Z,91.80
2019-06-26T08:26:17.054Z,92.10
2019-06-26T08:29:24.941Z,92.10
2019-06-26T08:32:32.868Z,91.80
2019-06-26T08:35:40.864Z,91.70
2019-06-26T08:38:48.847Z,92.10
2019-06-26T08:41:56.874Z,92.00
2019-06-26T08:45:05.733Z,92.40
2019-06-26T08:48:28.270Z,91.90
2019-06-26T08:51:24.065Z,92.10
2019-06-26T08:54:32.169Z,92.30
2019-06-26T08:57:40.299Z,91.80
2019-06-26T09:00:48.333Z,91.90
2019-06-26T09:03:56.213Z,91.60
2019-06-26T09:07:04.221Z,92.10
2019-06-26T09:10:12.866Z,92.20
2019-06-26T09:13:20.750Z,91.60
2019-06-26T09:16:28.795Z,91.80
2019-06-26T09:19:36.844Z,91.80
2019-06-26T09:22:44.852Z,92.50
2019-06-26T09:25:52.588Z,92.00
2019-06-26T09:29:00.591Z,91.00
2019-06-26T09:32:17.819Z,91.00
2019-06-26T09:35:25.860Z,91.10
2019-06-26T09:38:33.890Z,91.00
2019-06-26T09:41:41.856Z,90.90
2019-06-26T09:45:35.763Z,90.30
2019-06-26T09:48:53.737Z,90.50
2019-06-26T09:52:11.168Z,90.10
2019-06-26T09:55:19.525Z,90.30
2019-06-26T09:58:36.625Z,90.60
2019-06-26T10:01:44.843Z,90.80
2019-06-26T10:05:02.409Z,88.70
2019-06-26T10:13:01.643Z,88.70
2019-06-26T10:16:18.948Z,88.70
2019-06-26T10:19:26.934Z,88.60
2019-06-26T10:22:34.818Z,89.20
2019-06-26T10:25:42.814Z,89.30
2019-06-26T10:28:50.710Z,88.00
2019-06-26T10:31:58.708Z,88.30
2019-06-26T10:35:07.735Z,88.30
2019-06-26T10:38:15.625Z,88.50
2019-06-26T10:41:23.721Z,88.20
2019-06-26T10:44:41.182Z,89.50
2019-06-26T10:47:49.186Z,89.30
2019-06-26T10:50:59.033Z,89.30
2019-06-26T10:54:06.860Z,87.70
2019-06-26T10:57:24.175Z,87.80
2019-06-26T11:00:33.111Z,88.40
2019-06-26T11:03:41.239Z,89.20
2019-06-26T11:06:59.628Z,88.70
2019-06-26T11:10:17.462Z,86.80
2019-06-26T11:13:25.377Z,87.40
2019-06-26T11:16:33.301Z,86.30
2019-06-26T11:19:44.204Z,86.50
2019-06-26T11:24:03.712Z,86.10
2019-06-26T11:27:11.714Z,86.10
2019-06-26T11:30:21.161Z,83.30
2019-06-26T11:33:38.449Z,83.90
2019-06-26T11:37:02.708Z,85.70
2019-06-26T11:40:06.854Z,85.90
2019-06-26T11:43:14.759Z,86.20
2019-06-26T11:46:22.822Z,86.70
2019-06-26T11:49:30.756Z,83.80
2019-06-26T11:52:39.041Z,84.80
2019-06-26T11:55:47.320Z,84.70
2019-06-26T11:59:04.514Z,84.60
2019-06-26T12:02:12.498Z,83.90
2019-06-26T12:05:21.820Z,82.70
2019-06-26T12:08:29.725Z,83.00
2019-06-26T12:11:37.719Z,84.60
2019-06-26T12:14:45.730Z,85.10
2019-06-26T12:17:53.838Z,82.40
2019-06-26T12:21:01.841Z,84.00
2019-06-26T12:24:09.849Z,84.20
2019-06-26T12:27:24.057Z,82.90
2019-06-26T12:30:31.937Z,80.00
2019-06-26T12:33:49.165Z,77.30
2019-06-26T12:36:57.177Z,76.10
2019-06-26T12:40:06.964Z,75.40
2019-06-26T12:43:14.865Z,74.70
2019-06-26T12:46:22.739Z,74.10
2019-06-26T12:49:30.722Z,74.00
2019-06-26T12:52:38.859Z,73.60
2019-06-26T12:55:46.831Z,72.10
2019-06-26T12:58:54.726Z,72.70
2019-06-26T13:02:02.674Z,73.70
2019-06-26T13:05:11.978Z,74.10
2019-06-26T13:08:29.039Z,75.50
2019-06-26T13:11:37.038Z,74.30
2019-06-26T13:14:45.041Z,73.70
2019-06-26T13:17:53.049Z,76.00
2019-06-26T13:21:04.868Z,77.20
2019-06-26T13:24:10.755Z,78.20
2019-06-26T13:27:18.643Z,78.80
2019-06-26T13:30:37.535Z,79.70
2019-06-26T13:33:45.425Z,80.20
2019-06-26T13:37:39.235Z,80.90
2019-06-26T13:40:47.113Z,82.30
2019-06-26T13:43:55.142Z,83.80
2019-06-26T13:47:03.096Z,85.20
2019-06-26T13:50:11.438Z,86.40
2019-06-26T13:53:19.474Z,86.80
2019-06-26T13:56:27.354Z,88.00
2019-06-26T13:59:35.459Z,88.40
2019-06-26T14:02:52.894Z,88.20
2019-06-26T14:06:00.868Z,89.20
2019-06-26T14:09:09.526Z,89.70
2019-06-26T14:12:19.298Z,88.60
2019-06-26T14:15:27.277Z,88.80
2019-06-26T14:18:35.296Z,89.80
2019-06-26T14:21:43.316Z,89.50
2019-06-26T14:24:57.522Z,90.20
2019-06-26T14:28:05.443Z,89.00
2019-06-26T14:31:13.503Z,89.50
2019-06-26T14:34:21.626Z,90.20
2019-06-26T14:37:29.498Z,88.80
2019-06-26T14:40:37.494Z,89.50
2019-06-26T14:43:45.484Z,89.20
2019-06-26T14:46:53.380Z,90.00
2019-06-26T14:50:01.847Z,89.90
2019-06-26T14:53:09.773Z,90.00
2019-06-26T14:56:27.182Z,90.10
2019-06-26T14:59:35.178Z,88.30
2019-06-26T15:02:43.151Z,90.20
2019-06-26T15:05:51.039Z,90.20
2019-06-26T15:08:58.943Z,90.60
2019-06-26T15:12:06.852Z,90.40
2019-06-26T15:15:15.348Z,90.10
2019-06-26T15:18:23.247Z,90.00
2019-06-26T15:21:31.260Z,90.30
2019-06-26T15:24:39.458Z,90.90
2019-06-26T15:27:56.618Z,91.10
2019-06-26T15:31:04.612Z,91.50
2019-06-26T15:34:12.608Z,91.60
2019-06-26T15:37:20.571Z,91.50
2019-06-26T15:40:28.418Z,91.70
2019-06-26T15:43:36.386Z,91.80
2019-06-26T15:46:44.264Z,91.90
2019-06-26T15:50:02.314Z,92.20
2019-06-26T15:53:19.623Z,92.40
2019-06-26T15:56:27.836Z,92.40
2019-06-26T15:59:45.111Z,92.60
2019-06-26T16:02:53.292Z,92.60
2019-06-26T16:06:10.614Z,92.20
2019-06-26T16:09:18.607Z,92.50
2019-06-26T16:12:26.636Z,92.30
2019-06-26T16:15:35.105Z,92.20
2019-06-26T16:18:57.636Z,92.30
2019-06-26T16:22:05.598Z,93.00
2019-06-26T16:25:13.839Z,93.40
2019-06-26T16:28:31.195Z,93.10
2019-06-26T16:31:39.083Z,93.10
2019-06-26T16:34:47.126Z,92.00
2019-06-26T16:37:55.034Z,92.30
2019-06-26T16:41:03.132Z,92.70
2019-06-26T16:44:11.019Z,93.20
2019-06-26T16:47:18.891Z,93.60
2019-06-26T16:50:30.568Z,93.80
2019-06-26T16:53:38.477Z,93.80
2019-06-26T16:56:46.501Z,93.90
2019-06-26T17:00:08.464Z,94.00
2019-06-26T17:03:04.036Z,94.30
2019-06-26T17:06:11.921Z,94.30
2019-06-26T17:09:19.837Z,94.30
2019-06-26T17:12:27.899Z,94.00
2019-06-26T17:15:35.888Z,93.90
2019-06-26T17:18:43.924Z,93.90
2019-06-26T17:21:52.131Z,94.20
2019-06-26T17:25:00.146Z,94.40
2019-06-26T17:28:08.113Z,94.50
2019-06-26T17:31:15.992Z,94.60
2019-06-26T17:34:27.072Z,94.80
2019-06-26T17:37:33.425Z,94.50
2019-06-26T17:40:41.409Z,94.00
2019-06-26T17:43:48.388Z,94.00
2019-06-26T17:46:56.097Z,94.30
2019-06-26T17:50:04.113Z,94.30
2019-06-26T17:53:21.554Z,94.70
2019-06-26T17:56:21.721Z,94.60
2019-06-26T17:59:29.599Z,94.80
2019-06-26T18:02:37.501Z,95.00
2019-06-26T18:05:45.511Z,94.60
2019-06-26T18:08:53.484Z,94.90
2019-06-26T18:12:01.495Z,95.10
2019-06-26T18:15:10.024Z,95.30
2019-06-26T18:18:18.032Z,95.80
2019-06-26T18:21:35.298Z,95.80
2019-06-26T18:24:43.188Z,95.90
2019-06-26T18:27:51.282Z,96.10
2019-06-26T18:30:59.239Z,96.20
2019-06-26T18:34:07.107Z,96.40
2019-06-26T18:37:15.094Z,96.00
2019-06-26T18:40:23.160Z,95.70
2019-06-26T18:43:31.076Z,95.60
2019-06-26T18:46:39.075Z,95.80
2019-06-26T18:49:46.952Z,95.90
2019-06-26T18:52:54.927Z,95.90
2019-06-26T18:56:11.881Z,96.00
2019-06-26T18:59:19.876Z,96.10
2019-06-26T19:02:27.850Z,95.90
2019-06-26T19:05:35.810Z,96.00
2019-06-26T19:08:43.877Z,96.30
2019-06-26T19:11:51.767Z,96.60
2019-06-26T19:14:59.655Z,96.40
2019-06-26T19:18:07.562Z,96.70
2019-06-26T19:21:15.447Z,96.70
2019-06-26T19:24:32.590Z,96.30
2019-06-26T19:27:40.484Z,96.50
2019-06-26T19:30:48.540Z,96.80
2019-06-26T19:33:56.489Z,97.00
2019-06-26T19:37:04.512Z,97.30
2019-06-26T19:40:13.802Z,96.80
2019-06-26T19:43:21.684Z,96.70
2019-06-26T19:46:41.908Z,96.80
2019-06-26T19:49:48.548Z,96.80
2019-06-26T19:52:56.550Z,97.00
2019-06-26T19:56:04.540Z,97.20
2019-06-26T19:59:12.590Z,97.30
2019-06-26T20:02:20.471Z,97.20
2019-06-26T20:05:28.548Z,97.50
2019-06-26T20:08:51.915Z,97.50
2019-06-26T20:11:55.610Z,97.40
2019-06-26T20:15:04.263Z,97.30
2019-06-26T20:18:12.157Z,97.40
2019-06-26T20:21:20.138Z,97.80
2019-06-26T20:24:44.238Z,98.10
2019-06-26T20:27:46.772Z,98.10
2019-06-26T20:30:54.730Z,98.40
2019-06-26T20:34:02.699Z,98.40
2019-06-26T20:37:10.571Z,98.60
2019-06-26T20:40:19.621Z,98.40
2019-06-26T20:43:27.514Z,98.20
2019-06-26T20:46:35.536Z,98.10
2019-06-26T20:49:52.978Z,98.20
2019-06-26T20:52:53.119Z,98.20
2019-06-26T20:56:01.010Z,98.30
2019-06-26T20:59:08.991Z,98.30
2019-06-26T21:02:17.027Z,98.40
2019-06-26T21:05:28.611Z,98.40
2019-06-26T21:08:34.580Z,98.40
2019-06-26T21:11:42.556Z,98.60
2019-06-26T21:14:50.545Z,98.70
2019-06-26T21:17:58.536Z,99.10
2019-06-26T21:21:06.409Z,98.80
2019-06-26T21:24:14.289Z,98.50
2019-06-26T21:27:32.471Z,99.00
2019-06-26T21:30:49.651Z,98.70
2019-06-26T21:33:57.639Z,98.80
2019-06-26T21:37:05.499Z,99.10
2019-06-26T21:40:13.765Z,99.00
2019-06-26T21:43:21.619Z,98.90
2019-06-26T21:46:29.592Z,99.10
2019-06-26T21:49:37.462Z,99.10
2019-06-26T21:52:45.343Z,99.00
2019-06-26T21:55:53.243Z,98.90
2019-06-26T21:59:10.383Z,99.40
2019-06-26T22:02:18.352Z,99.20
2019-06-26T22:05:26.518Z,99.20
2019-06-26T22:08:34.529Z,99.30
2019-06-26T22:11:42.471Z,99.20
2019-06-26T22:14:50.350Z,99.10
2019-06-26T22:17:58.232Z,99.20
2019-06-26T22:21:06.199Z,99.30
2019-06-26T22:24:14.082Z,99.40
2019-06-26T22:27:31.096Z,99.70
2019-06-26T22:30:39.090Z,99.70
2019-06-26T22:33:47.181Z,99.80
2019-06-26T22:36:55.168Z,99.80
2019-06-26T22:40:03.293Z,99.90
2019-06-26T22:43:11.380Z,99.70
2019-06-26T22:46:28.550Z,99.50
2019-06-26T22:49:36.619Z,99.60
2019-06-26T22:52:44.594Z,99.70
2019-06-26T22:56:06.588Z,98.90
2019-06-26T22:59:02.157Z,99.00
2019-06-26T23:02:10.063Z,98.50
2019-06-26T23:05:18.086Z,98.50
2019-06-26T23:08:26.149Z,98.20
2019-06-26T23:11:34.113Z,98.40
2019-06-26T23:14:42.084Z,98.50
2019-06-26T23:17:49.969Z,98.80
2019-06-26T23:20:58.057Z,99.00
2019-06-26T23:24:06.110Z,99.00
2019-06-26T23:27:14.084Z,98.90
2019-06-26T23:30:22.146Z,99.00
2019-06-26T23:33:30.038Z,98.90
2019-06-26T23:36:38.014Z,99.00
2019-06-26T23:39:46.059Z,98.50
2019-06-26T23:42:53.962Z,98.70
2019-06-26T23:46:02.026Z,98.90
2019-06-26T23:49:10.119Z,98.90
2019-06-26T23:52:18.087Z,98.60
2019-06-26T23:55:26.074Z,98.10
2019-06-26T23:58:34.038Z,97.90
